sensor_id;sensor_type;location;lat;lon;timestamp;temperature;humidity
11650;DHT22;5881;48.522;7.682;2024-02-15T00:00:40;9.50;99.90
11650;DHT22;5881;48.522;7.682;2024-02-15T00:03:06;9.50;1.00
11650;DHT22;5881;48.522;7.682;2024-02-15T00:05:32;9.30;1.00
11650;DHT22;5881;48.522;7.682;2024-02-15T00:08:00;9.20;99.90
11650;DHT22;5881;48.522;7.682;2024-02-15T00:10:25;9.10;99.90
11650;DHT22;5881;48.522;7.682;2024-02-15T00:12:51;9.20;1.00
11650;DHT22;5881;48.522;7.682;2024-02-15T00:15:17;9.10;1.00
11650;DHT22;5881;48.522;7.682;2024-02-15T00:17:44;9.00;99.90
11650;DHT22;5881;48.522;7.682;2024-02-15T00:20:12;8.90;99.90
11650;DHT22;5881;48.522;7.682;2024-02-15T00:22:38;8.80;1.00
11650;DHT22;5881;48.522;7.682;2024-02-15T00:25:06;8.70;99.90
11650;DHT22;5881;48.522;7.682;2024-02-15T00:27:37;8.60;1.00
11650;DHT22;5881;48.522;7.682;2024-02-15T00:30:03;8.70;99.90
11650;DHT22;5881;48.522;7.682;2024-02-15T00:32:35;8.70;99.90
11650;DHT22;5881;48.522;7.682;2024-02-15T00:35:02;8.70;99.90
11650;DHT22;5881;48.522;7.682;2024-02-15T00:37:28;8.70;1.00
11650;DHT22;5881;48.522;7.682;2024-02-15T00:39:53;8.70;1.00
11650;DHT22;5881;48.522;7.682;2024-02-15T00:42:19;8.80;1.00
11650;DHT22;5881;48.522;7.682;2024-02-15T00:44:47;8.90;1.00
11650;DHT22;5881;48.522;7.682;2024-02-15T00:47:13;8.90;1.00
11650;DHT22;5881;48.522;7.682;2024-02-15T00:49:39;9.00;1.00
11650;DHT22;5881;48.522;7.682;2024-02-15T00:52:05;9.00;1.00
11650;DHT22;5881;48.522;7.682;2024-02-15T00:54:30;8.90;99.90
11650;DHT22;5881;48.522;7.682;2024-02-15T00:56:56;8.70;99.90
11650;DHT22;5881;48.522;7.682;2024-02-15T00:59:21;8.60;1.00
11650;DHT22;5881;48.522;7.682;2024-02-15T01:01:47;8.60;1.00
11650;DHT22;5881;48.522;7.682;2024-02-15T01:04:13;8.60;1.00
11650;DHT22;5881;48.522;7.682;2024-02-15T01:06:39;8.60;1.00
11650;DHT22;5881;48.522;7.682;2024-02-15T01:09:04;8.60;1.00
11650;DHT22;5881;48.522;7.682;2024-02-15T01:11:31;8.60;1.00
11650;DHT22;5881;48.522;7.682;2024-02-15T01:14:01;8.70;1.00
11650;DHT22;5881;48.522;7.682;2024-02-15T01:16:26;8.80;1.00
11650;DHT22;5881;48.522;7.682;2024-02-15T01:18:52;8.80;1.00
11650;DHT22;5881;48.522;7.682;2024-02-15T01:21:17;8.80;1.00
11650;DHT22;5881;48.522;7.682;2024-02-15T01:23:47;8.90;1.00
11650;DHT22;5881;48.522;7.682;2024-02-15T01:26:13;8.80;1.00
11650;DHT22;5881;48.522;7.682;2024-02-15T01:28:40;8.60;1.00
11650;DHT22;5881;48.522;7.682;2024-02-15T01:31:09;8.50;1.00
11650;DHT22;5881;48.522;7.682;2024-02-15T01:33:36;8.40;1.00
11650;DHT22;5881;48.522;7.682;2024-02-15T01:36:02;8.50;1.00
11650;DHT22;5881;48.522;7.682;2024-02-15T01:38:28;8.50;1.00
11650;DHT22;5881;48.522;7.682;2024-02-15T01:40:53;8.50;2.60
11650;DHT22;5881;48.522;7.682;2024-02-15T01:43:19;8.50;13.80
11650;DHT22;5881;48.522;7.682;2024-02-15T01:45:45;8.60;18.40
11650;DHT22;5881;48.522;7.682;2024-02-15T01:48:13;8.40;24.10
11650;DHT22;5881;48.522;7.682;2024-02-15T01:50:40;8.60;96.10
11650;DHT22;5881;48.522;7.682;2024-02-15T01:53:07;8.70;96.00
11650;DHT22;5881;48.522;7.682;2024-02-15T01:55:37;8.70;90.80
11650;DHT22;5881;48.522;7.682;2024-02-15T01:58:03;8.70;76.40
11650;DHT22;5881;48.522;7.682;2024-02-15T02:00:30;8.60;36.80
11650;DHT22;5881;48.522;7.682;2024-02-15T02:02:57;8.60;45.20
11650;DHT22;5881;48.522;7.682;2024-02-15T02:05:27;8.50;29.90
11650;DHT22;5881;48.522;7.682;2024-02-15T02:07:56;8.40;22.60
11650;DHT22;5881;48.522;7.682;2024-02-15T02:10:25;8.30;65.60
11650;DHT22;5881;48.522;7.682;2024-02-15T02:12:52;8.20;89.20
11650;DHT22;5881;48.522;7.682;2024-02-15T02:15:18;8.30;99.90
11650;DHT22;5881;48.522;7.682;2024-02-15T02:17:49;8.10;99.90
11650;DHT22;5881;48.522;7.682;2024-02-15T02:20:15;8.10;99.90
11650;DHT22;5881;48.522;7.682;2024-02-15T02:22:44;8.10;99.90
11650;DHT22;5881;48.522;7.682;2024-02-15T02:25:12;8.10;99.90
11650;DHT22;5881;48.522;7.682;2024-02-15T02:27:39;8.00;99.90
11650;DHT22;5881;48.522;7.682;2024-02-15T02:30:11;8.00;99.90
11650;DHT22;5881;48.522;7.682;2024-02-15T02:32:43;8.10;99.90
11650;DHT22;5881;48.522;7.682;2024-02-15T02:35:09;8.00;99.90
11650;DHT22;5881;48.522;7.682;2024-02-15T02:37:41;7.80;99.90
11650;DHT22;5881;48.522;7.682;2024-02-15T02:40:08;7.70;99.90
11650;DHT22;5881;48.522;7.682;2024-02-15T02:42:54;7.80;99.90
11650;DHT22;5881;48.522;7.682;2024-02-15T02:45:25;7.80;99.90
11650;DHT22;5881;48.522;7.682;2024-02-15T02:47:51;7.80;99.90
11650;DHT22;5881;48.522;7.682;2024-02-15T02:50:17;7.80;99.90
11650;DHT22;5881;48.522;7.682;2024-02-15T02:52:44;7.70;99.90
11650;DHT22;5881;48.522;7.682;2024-02-15T02:55:10;7.70;99.90
11650;DHT22;5881;48.522;7.682;2024-02-15T02:57:37;7.70;99.90
11650;DHT22;5881;48.522;7.682;2024-02-15T03:00:10;7.70;99.90
11650;DHT22;5881;48.522;7.682;2024-02-15T03:02:41;7.60;99.90
11650;DHT22;5881;48.522;7.682;2024-02-15T03:05:08;7.70;99.90
11650;DHT22;5881;48.522;7.682;2024-02-15T03:07:35;7.60;99.90
11650;DHT22;5881;48.522;7.682;2024-02-15T03:10:02;7.60;99.90
11650;DHT22;5881;48.522;7.682;2024-02-15T03:12:42;7.60;99.90
11650;DHT22;5881;48.522;7.682;2024-02-15T03:15:12;7.60;99.90
11650;DHT22;5881;48.522;7.682;2024-02-15T03:17:42;7.60;99.90
11650;DHT22;5881;48.522;7.682;2024-02-15T03:20:09;7.70;99.90
11650;DHT22;5881;48.522;7.682;2024-02-15T03:22:53;7.70;99.90
11650;DHT22;5881;48.522;7.682;2024-02-15T03:25:19;7.70;99.90
11650;DHT22;5881;48.522;7.682;2024-02-15T03:27:45;7.70;99.90
11650;DHT22;5881;48.522;7.682;2024-02-15T03:30:12;7.70;99.90
11650;DHT22;5881;48.522;7.682;2024-02-15T03:32:39;7.70;99.90
11650;DHT22;5881;48.522;7.682;2024-02-15T03:35:06;7.70;99.90
11650;DHT22;5881;48.522;7.682;2024-02-15T03:37:32;7.70;99.90
11650;DHT22;5881;48.522;7.682;2024-02-15T03:40:00;7.80;99.90
11650;DHT22;5881;48.522;7.682;2024-02-15T03:42:26;7.50;99.90
11650;DHT22;5881;48.522;7.682;2024-02-15T03:44:53;7.60;99.90
11650;DHT22;5881;48.522;7.682;2024-02-15T03:47:19;7.50;99.90
11650;DHT22;5881;48.522;7.682;2024-02-15T03:49:45;7.50;99.90
11650;DHT22;5881;48.522;7.682;2024-02-15T03:52:11;7.50;99.90
11650;DHT22;5881;48.522;7.682;2024-02-15T03:54:37;7.60;99.90
11650;DHT22;5881;48.522;7.682;2024-02-15T03:57:02;7.60;99.90
11650;DHT22;5881;48.522;7.682;2024-02-15T03:59:29;7.60;99.90
11650;DHT22;5881;48.522;7.682;2024-02-15T04:01:55;7.70;99.90
11650;DHT22;5881;48.522;7.682;2024-02-15T04:04:22;7.60;99.90
11650;DHT22;5881;48.522;7.682;2024-02-15T04:06:48;7.50;99.90
11650;DHT22;5881;48.522;7.682;2024-02-15T04:09:14;7.40;99.90
11650;DHT22;5881;48.522;7.682;2024-02-15T04:11:40;7.50;99.90
11650;DHT22;5881;48.522;7.682;2024-02-15T04:14:05;7.40;99.90
11650;DHT22;5881;48.522;7.682;2024-02-15T04:16:31;7.40;99.90
11650;DHT22;5881;48.522;7.682;2024-02-15T04:18:58;7.40;99.90
11650;DHT22;5881;48.522;7.682;2024-02-15T04:21:24;7.40;99.90
11650;DHT22;5881;48.522;7.682;2024-02-15T04:23:50;7.30;99.90
11650;DHT22;5881;48.522;7.682;2024-02-15T04:26:17;7.30;99.90
11650;DHT22;5881;48.522;7.682;2024-02-15T04:28:45;7.30;99.90
11650;DHT22;5881;48.522;7.682;2024-02-15T04:31:13;7.30;99.90
11650;DHT22;5881;48.522;7.682;2024-02-15T04:33:40;7.20;99.90
11650;DHT22;5881;48.522;7.682;2024-02-15T04:36:06;7.30;99.90
11650;DHT22;5881;48.522;7.682;2024-02-15T04:38:32;7.30;99.90
11650;DHT22;5881;48.522;7.682;2024-02-15T04:41:01;7.30;99.90
11650;DHT22;5881;48.522;7.682;2024-02-15T04:43:27;7.20;99.90
11650;DHT22;5881;48.522;7.682;2024-02-15T04:45:54;7.20;99.90
11650;DHT22;5881;48.522;7.682;2024-02-15T04:48:19;7.20;99.90
11650;DHT22;5881;48.522;7.682;2024-02-15T04:50:45;7.10;99.90
11650;DHT22;5881;48.522;7.682;2024-02-15T04:53:11;7.10;99.90
11650;DHT22;5881;48.522;7.682;2024-02-15T04:55:37;7.10;99.90
11650;DHT22;5881;48.522;7.682;2024-02-15T04:58:03;7.00;99.90
11650;DHT22;5881;48.522;7.682;2024-02-15T05:00:30;7.00;99.90
11650;DHT22;5881;48.522;7.682;2024-02-15T05:02:55;7.20;99.90
11650;DHT22;5881;48.522;7.682;2024-02-15T05:05:21;7.10;99.90
11650;DHT22;5881;48.522;7.682;2024-02-15T05:07:48;7.00;99.90
11650;DHT22;5881;48.522;7.682;2024-02-15T05:10:17;7.10;99.90
11650;DHT22;5881;48.522;7.682;2024-02-15T05:12:42;7.10;99.90
11650;DHT22;5881;48.522;7.682;2024-02-15T05:15:09;7.00;99.90
11650;DHT22;5881;48.522;7.682;2024-02-15T05:17:38;7.00;99.90
11650;DHT22;5881;48.522;7.682;2024-02-15T05:20:07;7.00;99.90
11650;DHT22;5881;48.522;7.682;2024-02-15T05:22:37;7.00;99.90
11650;DHT22;5881;48.522;7.682;2024-02-15T05:25:07;7.00;99.90
11650;DHT22;5881;48.522;7.682;2024-02-15T05:27:34;7.00;99.90
11650;DHT22;5881;48.522;7.682;2024-02-15T05:29:59;7.00;99.90
11650;DHT22;5881;48.522;7.682;2024-02-15T05:32:25;7.00;99.90
11650;DHT22;5881;48.522;7.682;2024-02-15T05:34:52;7.00;99.90
11650;DHT22;5881;48.522;7.682;2024-02-15T05:37:20;7.00;99.90
11650;DHT22;5881;48.522;7.682;2024-02-15T05:39:46;6.90;99.90
11650;DHT22;5881;48.522;7.682;2024-02-15T05:42:11;6.90;99.90
11650;DHT22;5881;48.522;7.682;2024-02-15T05:44:37;6.90;99.90
11650;DHT22;5881;48.522;7.682;2024-02-15T05:47:03;7.00;99.90
11650;DHT22;5881;48.522;7.682;2024-02-15T05:49:29;6.90;99.90
11650;DHT22;5881;48.522;7.682;2024-02-15T05:51:55;6.90;99.90
11650;DHT22;5881;48.522;7.682;2024-02-15T05:54:20;6.90;99.90
11650;DHT22;5881;48.522;7.682;2024-02-15T05:56:48;6.90;99.90
11650;DHT22;5881;48.522;7.682;2024-02-15T05:59:19;6.90;99.90
11650;DHT22;5881;48.522;7.682;2024-02-15T06:01:46;7.00;99.90
11650;DHT22;5881;48.522;7.682;2024-02-15T06:04:14;6.90;99.90
11650;DHT22;5881;48.522;7.682;2024-02-15T06:06:40;7.00;99.90
11650;DHT22;5881;48.522;7.682;2024-02-15T06:09:06;6.80;99.90
11650;DHT22;5881;48.522;7.682;2024-02-15T06:11:31;6.80;99.90
11650;DHT22;5881;48.522;7.682;2024-02-15T06:13:57;6.80;99.90
11650;DHT22;5881;48.522;7.682;2024-02-15T06:16:23;6.80;99.90
11650;DHT22;5881;48.522;7.682;2024-02-15T06:18:48;6.80;99.90
11650;DHT22;5881;48.522;7.682;2024-02-15T06:21:14;6.80;99.90
11650;DHT22;5881;48.522;7.682;2024-02-15T06:23:40;6.90;99.90
11650;DHT22;5881;48.522;7.682;2024-02-15T06:26:06;6.70;99.90
11650;DHT22;5881;48.522;7.682;2024-02-15T06:28:32;6.90;99.90
11650;DHT22;5881;48.522;7.682;2024-02-15T06:31:15;7.00;99.90
11650;DHT22;5881;48.522;7.682;2024-02-15T06:33:59;7.00;99.90
11650;DHT22;5881;48.522;7.682;2024-02-15T06:36:48;7.10;99.90
11650;DHT22;5881;48.522;7.682;2024-02-15T06:39:33;7.00;99.90
11650;DHT22;5881;48.522;7.682;2024-02-15T06:42:08;7.00;99.90
11650;DHT22;5881;48.522;7.682;2024-02-15T06:44:35;7.10;99.90
11650;DHT22;5881;48.522;7.682;2024-02-15T06:47:01;7.10;99.90
11650;DHT22;5881;48.522;7.682;2024-02-15T06:49:27;7.10;99.90
11650;DHT22;5881;48.522;7.682;2024-02-15T06:51:52;7.10;99.90
11650;DHT22;5881;48.522;7.682;2024-02-15T06:54:18;7.20;99.90
11650;DHT22;5881;48.522;7.682;2024-02-15T06:56:47;7.20;99.90
11650;DHT22;5881;48.522;7.682;2024-02-15T06:59:13;7.30;99.90
11650;DHT22;5881;48.522;7.682;2024-02-15T07:01:43;7.40;99.90
11650;DHT22;5881;48.522;7.682;2024-02-15T07:04:10;7.40;99.90
11650;DHT22;5881;48.522;7.682;2024-02-15T07:06:36;7.50;99.90
11650;DHT22;5881;48.522;7.682;2024-02-15T07:09:03;7.50;99.90
11650;DHT22;5881;48.522;7.682;2024-02-15T07:11:29;7.50;99.90
11650;DHT22;5881;48.522;7.682;2024-02-15T07:13:55;7.50;99.90
11650;DHT22;5881;48.522;7.682;2024-02-15T07:16:22;7.60;99.90
11650;DHT22;5881;48.522;7.682;2024-02-15T07:18:48;7.80;99.90
11650;DHT22;5881;48.522;7.682;2024-02-15T07:21:14;7.90;92.10
11650;DHT22;5881;48.522;7.682;2024-02-15T07:23:44;8.10;30.10
11650;DHT22;5881;48.522;7.682;2024-02-15T07:26:10;7.80;1.00
11650;DHT22;5881;48.522;7.682;2024-02-15T07:28:37;7.80;1.00
11650;DHT22;5881;48.522;7.682;2024-02-15T07:31:03;7.70;1.00
11650;DHT22;5881;48.522;7.682;2024-02-15T07:33:29;7.70;1.00
11650;DHT22;5881;48.522;7.682;2024-02-15T07:35:55;7.70;1.00
11650;DHT22;5881;48.522;7.682;2024-02-15T07:38:22;7.90;1.00
11650;DHT22;5881;48.522;7.682;2024-02-15T07:40:51;7.90;1.00
11650;DHT22;5881;48.522;7.682;2024-02-15T07:43:16;7.90;1.00
11650;DHT22;5881;48.522;7.682;2024-02-15T07:45:42;8.00;1.00
11650;DHT22;5881;48.522;7.682;2024-02-15T07:48:08;8.00;99.90
11650;DHT22;5881;48.522;7.682;2024-02-15T07:50:34;8.10;15.50
11650;DHT22;5881;48.522;7.682;2024-02-15T07:53:03;8.10;99.90
11650;DHT22;5881;48.522;7.682;2024-02-15T07:55:28;8.20;99.90
11650;DHT22;5881;48.522;7.682;2024-02-15T07:57:54;8.30;99.90
11650;DHT22;5881;48.522;7.682;2024-02-15T08:00:21;8.30;99.90
11650;DHT22;5881;48.522;7.682;2024-02-15T08:02:46;8.40;1.00
11650;DHT22;5881;48.522;7.682;2024-02-15T08:05:13;8.50;1.00
11650;DHT22;5881;48.522;7.682;2024-02-15T08:07:44;8.50;1.00
11650;DHT22;5881;48.522;7.682;2024-02-15T08:10:10;8.50;99.90
11650;DHT22;5881;48.522;7.682;2024-02-15T08:12:46;8.60;99.90
11650;DHT22;5881;48.522;7.682;2024-02-15T08:15:14;8.60;1.00
11650;DHT22;5881;48.522;7.682;2024-02-15T08:17:40;8.70;1.00
11650;DHT22;5881;48.522;7.682;2024-02-15T08:20:10;8.70;99.90
11650;DHT22;5881;48.522;7.682;2024-02-15T08:22:37;8.80;17.30
11650;DHT22;5881;48.522;7.682;2024-02-15T08:27:31;8.90;44.00
11650;DHT22;5881;48.522;7.682;2024-02-15T08:29:59;8.90;1.00
11650;DHT22;5881;48.522;7.682;2024-02-15T08:32:24;8.80;1.00
11650;DHT22;5881;48.522;7.682;2024-02-15T08:34:50;9.00;1.00
11650;DHT22;5881;48.522;7.682;2024-02-15T08:37:16;8.90;1.00
11650;DHT22;5881;48.522;7.682;2024-02-15T08:39:41;9.00;1.00
11650;DHT22;5881;48.522;7.682;2024-02-15T08:42:10;9.00;99.90
11650;DHT22;5881;48.522;7.682;2024-02-15T08:44:36;9.20;1.00
11650;DHT22;5881;48.522;7.682;2024-02-15T08:47:02;9.40;99.90
11650;DHT22;5881;48.522;7.682;2024-02-15T08:49:27;9.40;1.00
11650;DHT22;5881;48.522;7.682;2024-02-15T08:51:56;9.50;1.00
11650;DHT22;5881;48.522;7.682;2024-02-15T08:54:21;9.70;1.00
11650;DHT22;5881;48.522;7.682;2024-02-15T08:56:47;9.80;1.00
11650;DHT22;5881;48.522;7.682;2024-02-15T08:59:12;10.30;1.00
11650;DHT22;5881;48.522;7.682;2024-02-15T09:01:40;10.40;1.00
11650;DHT22;5881;48.522;7.682;2024-02-15T09:04:06;10.70;1.00
11650;DHT22;5881;48.522;7.682;2024-02-15T09:06:32;11.80;1.00
11650;DHT22;5881;48.522;7.682;2024-02-15T09:08:57;12.50;99.90
11650;DHT22;5881;48.522;7.682;2024-02-15T09:11:28;12.70;99.90
11650;DHT22;5881;48.522;7.682;2024-02-15T09:13:54;12.60;99.90
11650;DHT22;5881;48.522;7.682;2024-02-15T09:16:20;12.90;99.90
11650;DHT22;5881;48.522;7.682;2024-02-15T09:18:47;13.30;99.90
11650;DHT22;5881;48.522;7.682;2024-02-15T09:21:12;13.20;99.90
11650;DHT22;5881;48.522;7.682;2024-02-15T09:23:39;12.70;99.90
11650;DHT22;5881;48.522;7.682;2024-02-15T09:26:05;13.20;99.90
11650;DHT22;5881;48.522;7.682;2024-02-15T09:28:30;13.40;99.90
11650;DHT22;5881;48.522;7.682;2024-02-15T09:30:56;13.30;99.90
11650;DHT22;5881;48.522;7.682;2024-02-15T09:33:24;13.30;99.90
11650;DHT22;5881;48.522;7.682;2024-02-15T09:35:51;13.30;99.90
11650;DHT22;5881;48.522;7.682;2024-02-15T09:38:17;13.10;99.90
11650;DHT22;5881;48.522;7.682;2024-02-15T09:40:44;13.20;99.90
11650;DHT22;5881;48.522;7.682;2024-02-15T09:43:10;13.10;99.90
11650;DHT22;5881;48.522;7.682;2024-02-15T09:45:38;13.80;99.90
11650;DHT22;5881;48.522;7.682;2024-02-15T09:48:06;14.20;99.90
11650;DHT22;5881;48.522;7.682;2024-02-15T09:50:35;14.40;99.90
11650;DHT22;5881;48.522;7.682;2024-02-15T09:53:02;14.60;99.90
11650;DHT22;5881;48.522;7.682;2024-02-15T09:55:28;14.50;99.90
11650;DHT22;5881;48.522;7.682;2024-02-15T09:57:55;14.80;99.90
11650;DHT22;5881;48.522;7.682;2024-02-15T10:00:20;14.70;99.90
11650;DHT22;5881;48.522;7.682;2024-02-15T10:02:53;14.50;99.90
11650;DHT22;5881;48.522;7.682;2024-02-15T10:05:19;14.50;99.90
11650;DHT22;5881;48.522;7.682;2024-02-15T10:07:45;14.50;99.90
11650;DHT22;5881;48.522;7.682;2024-02-15T10:10:22;14.30;99.90
11650;DHT22;5881;48.522;7.682;2024-02-15T10:12:49;14.20;99.90
11650;DHT22;5881;48.522;7.682;2024-02-15T10:17:55;13.90;99.90
11650;DHT22;5881;48.522;7.682;2024-02-15T10:20:22;14.40;99.90
11650;DHT22;5881;48.522;7.682;2024-02-15T10:22:52;15.00;99.90
11650;DHT22;5881;48.522;7.682;2024-02-15T10:25:18;14.80;99.90
11650;DHT22;5881;48.522;7.682;2024-02-15T10:27:44;14.70;99.90
11650;DHT22;5881;48.522;7.682;2024-02-15T10:30:17;14.70;99.90
11650;DHT22;5881;48.522;7.682;2024-02-15T10:32:43;15.10;99.90
11650;DHT22;5881;48.522;7.682;2024-02-15T10:35:10;15.20;99.90
11650;DHT22;5881;48.522;7.682;2024-02-15T10:37:41;14.80;99.90
11650;DHT22;5881;48.522;7.682;2024-02-15T10:40:07;15.30;99.90
11650;DHT22;5881;48.522;7.682;2024-02-15T10:42:33;15.60;99.90
11650;DHT22;5881;48.522;7.682;2024-02-15T10:45:02;15.60;99.90
11650;DHT22;5881;48.522;7.682;2024-02-15T10:47:30;15.90;99.90
11650;DHT22;5881;48.522;7.682;2024-02-15T10:49:56;16.40;99.90
11650;DHT22;5881;48.522;7.682;2024-02-15T10:52:25;16.00;99.90
11650;DHT22;5881;48.522;7.682;2024-02-15T10:55:04;16.20;99.90
11650;DHT22;5881;48.522;7.682;2024-02-15T10:57:37;16.90;99.90
11650;DHT22;5881;48.522;7.682;2024-02-15T11:00:06;16.40;99.90
11650;DHT22;5881;48.522;7.682;2024-02-15T11:02:45;16.80;99.90
11650;DHT22;5881;48.522;7.682;2024-02-15T11:05:14;16.60;99.90
11650;DHT22;5881;48.522;7.682;2024-02-15T11:07:46;16.10;99.90
11650;DHT22;5881;48.522;7.682;2024-02-15T11:10:12;15.60;99.90
11650;DHT22;5881;48.522;7.682;2024-02-15T11:12:42;15.80;99.90
11650;DHT22;5881;48.522;7.682;2024-02-15T11:15:09;16.30;99.90
11650;DHT22;5881;48.522;7.682;2024-02-15T11:20:03;16.60;99.90
11650;DHT22;5881;48.522;7.682;2024-02-15T11:22:34;16.30;99.90
11650;DHT22;5881;48.522;7.682;2024-02-15T11:25:05;16.50;99.90
11650;DHT22;5881;48.522;7.682;2024-02-15T11:27:36;15.90;99.90
11650;DHT22;5881;48.522;7.682;2024-02-15T11:30:04;16.40;99.90
11650;DHT22;5881;48.522;7.682;2024-02-15T11:32:47;16.50;99.90
11650;DHT22;5881;48.522;7.682;2024-02-15T11:40:17;16.20;99.90
11650;DHT22;5881;48.522;7.682;2024-02-15T11:42:44;16.20;99.90
11650;DHT22;5881;48.522;7.682;2024-02-15T11:45:10;16.50;99.90
11650;DHT22;5881;48.522;7.682;2024-02-15T11:47:40;16.20;99.90
11650;DHT22;5881;48.522;7.682;2024-02-15T11:50:14;16.40;99.90
11650;DHT22;5881;48.522;7.682;2024-02-15T11:52:50;16.00;99.90
11650;DHT22;5881;48.522;7.682;2024-02-15T11:55:20;16.10;99.90
11650;DHT22;5881;48.522;7.682;2024-02-15T11:57:59;16.40;99.90
11650;DHT22;5881;48.522;7.682;2024-02-15T12:00:34;16.20;99.90
11650;DHT22;5881;48.522;7.682;2024-02-15T12:03:21;16.20;99.90
11650;DHT22;5881;48.522;7.682;2024-02-15T12:06:05;15.90;99.90
11650;DHT22;5881;48.522;7.682;2024-02-15T12:08:52;16.20;99.90
11650;DHT22;5881;48.522;7.682;2024-02-15T12:11:36;15.90;99.90
11650;DHT22;5881;48.522;7.682;2024-02-15T12:14:21;15.70;99.90
11650;DHT22;5881;48.522;7.682;2024-02-15T12:17:06;15.80;99.90
11650;DHT22;5881;48.522;7.682;2024-02-15T12:19:53;16.00;99.90
11650;DHT22;5881;48.522;7.682;2024-02-15T12:24:57;16.10;99.90
11650;DHT22;5881;48.522;7.682;2024-02-15T12:27:24;15.50;99.90
11650;DHT22;5881;48.522;7.682;2024-02-15T12:29:57;15.50;99.90
11650;DHT22;5881;48.522;7.682;2024-02-15T12:32:24;15.60;99.90
11650;DHT22;5881;48.522;7.682;2024-02-15T12:35:01;15.80;99.90
11650;DHT22;5881;48.522;7.682;2024-02-15T12:37:35;15.80;99.90
11650;DHT22;5881;48.522;7.682;2024-02-15T12:40:13;15.70;99.90
11650;DHT22;5881;48.522;7.682;2024-02-15T12:42:45;15.40;99.90
11650;DHT22;5881;48.522;7.682;2024-02-15T12:45:16;15.70;99.90
11650;DHT22;5881;48.522;7.682;2024-02-15T12:47:50;16.00;99.90
11650;DHT22;5881;48.522;7.682;2024-02-15T12:50:20;15.90;99.90
11650;DHT22;5881;48.522;7.682;2024-02-15T12:52:47;15.60;99.90
11650;DHT22;5881;48.522;7.682;2024-02-15T12:55:18;15.60;99.90
11650;DHT22;5881;48.522;7.682;2024-02-15T12:57:55;15.70;99.90
11650;DHT22;5881;48.522;7.682;2024-02-15T13:00:26;15.80;99.90
11650;DHT22;5881;48.522;7.682;2024-02-15T13:02:57;15.70;99.90
11650;DHT22;5881;48.522;7.682;2024-02-15T13:05:25;15.70;99.90
11650;DHT22;5881;48.522;7.682;2024-02-15T13:07:53;15.70;99.90
11650;DHT22;5881;48.522;7.682;2024-02-15T13:10:30;15.60;99.90
11650;DHT22;5881;48.522;7.682;2024-02-15T13:12:57;15.60;99.90
11650;DHT22;5881;48.522;7.682;2024-02-15T13:15:23;15.50;99.90
11650;DHT22;5881;48.522;7.682;2024-02-15T13:17:53;15.50;99.90
11650;DHT22;5881;48.522;7.682;2024-02-15T13:20:21;15.60;99.90
11650;DHT22;5881;48.522;7.682;2024-02-15T13:22:55;15.80;99.90
11650;DHT22;5881;48.522;7.682;2024-02-15T13:25:25;15.90;99.90
11650;DHT22;5881;48.522;7.682;2024-02-15T13:27:51;15.50;99.90
11650;DHT22;5881;48.522;7.682;2024-02-15T13:30:17;15.60;99.90
11650;DHT22;5881;48.522;7.682;2024-02-15T13:32:49;15.40;99.90
11650;DHT22;5881;48.522;7.682;2024-02-15T13:35:16;15.50;99.90
11650;DHT22;5881;48.522;7.682;2024-02-15T13:37:52;15.60;99.90
11650;DHT22;5881;48.522;7.682;2024-02-15T13:40:22;15.60;99.90
11650;DHT22;5881;48.522;7.682;2024-02-15T13:42:50;15.40;99.90
11650;DHT22;5881;48.522;7.682;2024-02-15T13:45:22;15.60;99.90
11650;DHT22;5881;48.522;7.682;2024-02-15T13:47:52;15.40;99.90
11650;DHT22;5881;48.522;7.682;2024-02-15T13:50:19;15.50;99.90
11650;DHT22;5881;48.522;7.682;2024-02-15T13:52:45;15.40;99.90
11650;DHT22;5881;48.522;7.682;2024-02-15T13:55:15;15.40;99.90
11650;DHT22;5881;48.522;7.682;2024-02-15T13:57:42;15.40;99.90
11650;DHT22;5881;48.522;7.682;2024-02-15T14:00:11;15.50;99.90
11650;DHT22;5881;48.522;7.682;2024-02-15T14:02:50;15.50;99.90
11650;DHT22;5881;48.522;7.682;2024-02-15T14:05:20;15.70;99.90
11650;DHT22;5881;48.522;7.682;2024-02-15T14:07:50;15.70;99.90
11650;DHT22;5881;48.522;7.682;2024-02-15T14:10:18;15.70;99.90
11650;DHT22;5881;48.522;7.682;2024-02-15T14:12:45;15.60;99.90
11650;DHT22;5881;48.522;7.682;2024-02-15T14:15:11;15.50;99.90
11650;DHT22;5881;48.522;7.682;2024-02-15T14:17:37;15.60;99.90
11650;DHT22;5881;48.522;7.682;2024-02-15T14:20:04;15.60;99.90
11650;DHT22;5881;48.522;7.682;2024-02-15T14:22:34;15.70;99.90
11650;DHT22;5881;48.522;7.682;2024-02-15T14:25:00;15.60;99.90
11650;DHT22;5881;48.522;7.682;2024-02-15T14:27:25;15.60;99.90
11650;DHT22;5881;48.522;7.682;2024-02-15T14:29:51;15.50;99.90
11650;DHT22;5881;48.522;7.682;2024-02-15T14:32:35;15.40;99.90
11650;DHT22;5881;48.522;7.682;2024-02-15T14:35:19;15.40;99.90
11650;DHT22;5881;48.522;7.682;2024-02-15T14:37:46;15.40;99.90
11650;DHT22;5881;48.522;7.682;2024-02-15T14:40:12;15.40;99.90
11650;DHT22;5881;48.522;7.682;2024-02-15T14:42:41;15.30;99.90
11650;DHT22;5881;48.522;7.682;2024-02-15T14:45:11;15.20;99.90
11650;DHT22;5881;48.522;7.682;2024-02-15T14:47:37;15.20;99.90
11650;DHT22;5881;48.522;7.682;2024-02-15T14:50:03;15.20;99.90
11650;DHT22;5881;48.522;7.682;2024-02-15T14:52:29;15.20;99.90
11650;DHT22;5881;48.522;7.682;2024-02-15T14:54:56;15.20;99.90
11650;DHT22;5881;48.522;7.682;2024-02-15T14:57:21;15.00;99.90
11650;DHT22;5881;48.522;7.682;2024-02-15T14:59:47;15.00;99.90
11650;DHT22;5881;48.522;7.682;2024-02-15T15:02:12;15.00;99.90
11650;DHT22;5881;48.522;7.682;2024-02-15T15:04:38;15.10;99.90
11650;DHT22;5881;48.522;7.682;2024-02-15T15:07:23;15.10;99.90
11650;DHT22;5881;48.522;7.682;2024-02-15T15:10:07;15.00;99.90
11650;DHT22;5881;48.522;7.682;2024-02-15T15:12:54;15.00;99.90
11650;DHT22;5881;48.522;7.682;2024-02-15T15:15:19;14.90;99.90
11650;DHT22;5881;48.522;7.682;2024-02-15T15:17:45;14.80;99.90
11650;DHT22;5881;48.522;7.682;2024-02-15T15:20:11;14.90;99.90
11650;DHT22;5881;48.522;7.682;2024-02-15T15:22:37;14.90;99.90
11650;DHT22;5881;48.522;7.682;2024-02-15T15:25:03;14.90;99.90
11650;DHT22;5881;48.522;7.682;2024-02-15T15:27:34;14.80;99.90
11650;DHT22;5881;48.522;7.682;2024-02-15T15:30:05;14.80;99.90
11650;DHT22;5881;48.522;7.682;2024-02-15T15:32:31;14.70;99.90
11650;DHT22;5881;48.522;7.682;2024-02-15T15:34:59;14.70;99.90
11650;DHT22;5881;48.522;7.682;2024-02-15T15:37:24;14.60;99.90
11650;DHT22;5881;48.522;7.682;2024-02-15T15:39:50;14.50;99.90
11650;DHT22;5881;48.522;7.682;2024-02-15T15:42:17;14.50;99.90
11650;DHT22;5881;48.522;7.682;2024-02-15T15:44:44;14.40;99.90
11650;DHT22;5881;48.522;7.682;2024-02-15T15:47:10;14.40;99.90
11650;DHT22;5881;48.522;7.682;2024-02-15T15:49:35;14.40;99.90
11650;DHT22;5881;48.522;7.682;2024-02-15T15:52:01;14.30;99.90
11650;DHT22;5881;48.522;7.682;2024-02-15T15:54:27;14.30;99.90
11650;DHT22;5881;48.522;7.682;2024-02-15T15:56:53;14.20;99.90
11650;DHT22;5881;48.522;7.682;2024-02-15T15:59:18;14.20;99.90
11650;DHT22;5881;48.522;7.682;2024-02-15T16:02:02;14.20;99.90
11650;DHT22;5881;48.522;7.682;2024-02-15T16:04:30;14.10;99.90
11650;DHT22;5881;48.522;7.682;2024-02-15T16:06:56;14.10;99.90
11650;DHT22;5881;48.522;7.682;2024-02-15T16:09:21;14.00;99.90
11650;DHT22;5881;48.522;7.682;2024-02-15T16:11:48;14.00;99.90
11650;DHT22;5881;48.522;7.682;2024-02-15T16:14:15;13.90;99.90
11650;DHT22;5881;48.522;7.682;2024-02-15T16:16:43;13.80;99.90
11650;DHT22;5881;48.522;7.682;2024-02-15T16:19:09;13.70;99.90